sensor_id;sensor_type;location;lat;lon;timestamp;pressure;altitude;pressure_sealevel;temperature;humidity
7433;BME280;32233;49.500;7.764;2023-08-31T00:00:55;97911.06;;;11.80;100.00
7433;BME280;32233;49.500;7.764;2023-08-31T00:03:21;97906.56;;;11.81;100.00
7433;BME280;32233;49.500;7.764;2023-08-31T00:05:48;97898.00;;;11.79;100.00
7433;BME280;32233;49.500;7.764;2023-08-31T00:08:17;97898.31;;;11.71;100.00
7433;BME280;32233;49.500;7.764;2023-08-31T00:10:44;97900.25;;;11.63;100.00
7433;BME280;32233;49.500;7.764;2023-08-31T00:13:11;97906.19;;;11.59;100.00
7433;BME280;32233;49.500;7.764;2023-08-31T00:15:38;97909.00;;;11.64;100.00
7433;BME280;32233;49.500;7.764;2023-08-31T00:18:07;97914.72;;;11.61;100.00
7433;BME280;32233;49.500;7.764;2023-08-31T00:20:34;97908.03;;;11.58;100.00
7433;BME280;32233;49.500;7.764;2023-08-31T00:23:01;97912.88;;;11.61;100.00
7433;BME280;32233;49.500;7.764;2023-08-31T00:25:27;97909.19;;;11.62;100.00
7433;BME280;32233;49.500;7.764;2023-08-31T00:27:56;97916.84;;;11.71;100.00
7433;BME280;32233;49.500;7.764;2023-08-31T00:30:23;97912.81;;;11.68;100.00
7433;BME280;32233;49.500;7.764;2023-08-31T00:32:56;97919.28;;;11.72;100.00
7433;BME280;32233;49.500;7.764;2023-08-31T00:35:27;97919.78;;;11.62;100.00
7433;BME280;32233;49.500;7.764;2023-08-31T00:37:55;97923.03;;;11.64;100.00
7433;BME280;32233;49.500;7.764;2023-08-31T00:40:25;97929.50;;;11.69;100.00
7433;BME280;32233;49.500;7.764;2023-08-31T00:42:52;97925.41;;;11.73;100.00
7433;BME280;32233;49.500;7.764;2023-08-31T00:45:18;97927.66;;;11.69;100.00
7433;BME280;32233;49.500;7.764;2023-08-31T00:47:48;97926.06;;;11.68;100.00
7433;BME280;32233;49.500;7.764;2023-08-31T00:50:16;97925.69;;;11.64;100.00
7433;BME280;32233;49.500;7.764;2023-08-31T00:52:42;97906.41;;;11.57;100.00
7433;BME280;32233;49.500;7.764;2023-08-31T00:55:13;97922.53;;;11.56;100.00
7433;BME280;32233;49.500;7.764;2023-08-31T00:57:40;97916.25;;;11.50;100.00
7433;BME280;32233;49.500;7.764;2023-08-31T01:00:08;97922.97;;;11.53;100.00
7433;BME280;32233;49.500;7.764;2023-08-31T01:02:59;97922.81;;;11.48;100.00
7433;BME280;32233;49.500;7.764;2023-08-31T01:10:39;97923.31;;;11.38;100.00
7433;BME280;32233;49.500;7.764;2023-08-31T01:13:18;97923.59;;;11.30;100.00
7433;BME280;32233;49.500;7.764;2023-08-31T01:15:52;97924.25;;;11.25;100.00
7433;BME280;32233;49.500;7.764;2023-08-31T01:18:22;97926.97;;;11.19;100.00
7433;BME280;32233;49.500;7.764;2023-08-31T01:21:02;97924.59;;;11.10;100.00
7433;BME280;32233;49.500;7.764;2023-08-31T01:23:53;97930.09;;;11.09;100.00
7433;BME280;32233;49.500;7.764;2023-08-31T01:26:21;97933.50;;;11.16;100.00
7433;BME280;32233;49.500;7.764;2023-08-31T01:28:50;97933.63;;;11.21;100.00
7433;BME280;32233;49.500;7.764;2023-08-31T01:31:17;97934.44;;;11.22;100.00
7433;BME280;32233;49.500;7.764;2023-08-31T01:33:46;97940.63;;;11.15;100.00
7433;BME280;32233;49.500;7.764;2023-08-31T01:38:58;97944.50;;;11.13;100.00
7433;BME280;32233;49.500;7.764;2023-08-31T01:41:27;97942.28;;;11.10;100.00
7433;BME280;32233;49.500;7.764;2023-08-31T01:43:55;97948.69;;;11.02;100.00
7433;BME280;32233;49.500;7.764;2023-08-31T01:46:22;97939.81;;;10.90;100.00
7433;BME280;32233;49.500;7.764;2023-08-31T01:48:49;97948.22;;;10.80;100.00
7433;BME280;32233;49.500;7.764;2023-08-31T01:51:16;97939.72;;;10.78;100.00
7433;BME280;32233;49.500;7.764;2023-08-31T01:53:43;97951.09;;;10.79;100.00
7433;BME280;32233;49.500;7.764;2023-08-31T01:56:11;97946.00;;;10.77;100.00
7433;BME280;32233;49.500;7.764;2023-08-31T01:58:37;97952.38;;;10.70;100.00
7433;BME280;32233;49.500;7.764;2023-08-31T02:01:04;97950.53;;;10.70;100.00
7433;BME280;32233;49.500;7.764;2023-08-31T02:03:31;97960.13;;;10.64;100.00
7433;BME280;32233;49.500;7.764;2023-08-31T02:05:57;97950.56;;;10.63;100.00
7433;BME280;32233;49.500;7.764;2023-08-31T02:08:24;97953.75;;;10.72;100.00
7433;BME280;32233;49.500;7.764;2023-08-31T02:10:50;97953.19;;;10.70;100.00
7433;BME280;32233;49.500;7.764;2023-08-31T02:13:22;97956.22;;;10.74;100.00
7433;BME280;32233;49.500;7.764;2023-08-31T02:15:51;97958.84;;;10.74;100.00
7433;BME280;32233;49.500;7.764;2023-08-31T02:18:19;97962.88;;;10.76;100.00
7433;BME280;32233;49.500;7.764;2023-08-31T02:20:45;97961.84;;;10.77;100.00
7433;BME280;32233;49.500;7.764;2023-08-31T02:23:13;97961.75;;;10.65;100.00
7433;BME280;32233;49.500;7.764;2023-08-31T02:25:40;97966.94;;;10.47;100.00
7433;BME280;32233;49.500;7.764;2023-08-31T02:28:06;97978.38;;;10.41;100.00
7433;BME280;32233;49.500;7.764;2023-08-31T02:30:36;97975.28;;;10.44;100.00
7433;BME280;32233;49.500;7.764;2023-08-31T02:33:04;97974.94;;;10.34;100.00
7433;BME280;32233;49.500;7.764;2023-08-31T02:35:31;97972.94;;;10.29;100.00
7433;BME280;32233;49.500;7.764;2023-08-31T02:37:57;97966.03;;;10.15;100.00
7433;BME280;32233;49.500;7.764;2023-08-31T02:40:24;97970.91;;;10.18;100.00
7433;BME280;32233;49.500;7.764;2023-08-31T02:42:51;97970.53;;;10.14;100.00
7433;BME280;32233;49.500;7.764;2023-08-31T02:45:20;97967.72;;;10.09;100.00
7433;BME280;32233;49.500;7.764;2023-08-31T02:47:47;97970.75;;;10.13;100.00
7433;BME280;32233;49.500;7.764;2023-08-31T02:50:16;97967.09;;;10.07;100.00
7433;BME280;32233;49.500;7.764;2023-08-31T02:52:42;97976.06;;;10.00;100.00
7433;BME280;32233;49.500;7.764;2023-08-31T02:55:09;97979.94;;;9.90;100.00
7433;BME280;32233;49.500;7.764;2023-08-31T02:57:36;97981.22;;;9.81;100.00
7433;BME280;32233;49.500;7.764;2023-08-31T03:00:04;97977.34;;;9.77;100.00
7433;BME280;32233;49.500;7.764;2023-08-31T03:02:35;97983.84;;;9.81;100.00
7433;BME280;32233;49.500;7.764;2023-08-31T03:05:03;97975.94;;;9.81;100.00
7433;BME280;32233;49.500;7.764;2023-08-31T03:07:30;97985.03;;;9.92;100.00
7433;BME280;32233;49.500;7.764;2023-08-31T03:09:56;97995.38;;;9.93;100.00
7433;BME280;32233;49.500;7.764;2023-08-31T03:12:23;97992.78;;;9.80;100.00
7433;BME280;32233;49.500;7.764;2023-08-31T03:14:49;97994.22;;;9.70;100.00
7433;BME280;32233;49.500;7.764;2023-08-31T03:17:17;97996.69;;;9.58;100.00
7433;BME280;32233;49.500;7.764;2023-08-31T03:19:43;97999.53;;;9.56;100.00
7433;BME280;32233;49.500;7.764;2023-08-31T03:22:11;97999.13;;;9.53;100.00
7433;BME280;32233;49.500;7.764;2023-08-31T03:24:37;97994.44;;;9.61;100.00
7433;BME280;32233;49.500;7.764;2023-08-31T03:27:04;98000.31;;;9.77;100.00
7433;BME280;32233;49.500;7.764;2023-08-31T03:29:31;98008.41;;;9.75;100.00
7433;BME280;32233;49.500;7.764;2023-08-31T03:32:00;98011.13;;;9.55;100.00
7433;BME280;32233;49.500;7.764;2023-08-31T03:34:30;98014.16;;;9.46;100.00
7433;BME280;32233;49.500;7.764;2023-08-31T03:36:58;98012.97;;;9.35;100.00
7433;BME280;32233;49.500;7.764;2023-08-31T03:39:25;98011.75;;;9.31;100.00
7433;BME280;32233;49.500;7.764;2023-08-31T03:41:52;98010.13;;;9.23;100.00
7433;BME280;32233;49.500;7.764;2023-08-31T03:44:20;98002.22;;;9.23;100.00
7433;BME280;32233;49.500;7.764;2023-08-31T03:46:49;98006.25;;;9.19;100.00
7433;BME280;32233;49.500;7.764;2023-08-31T03:49:15;98006.66;;;9.16;100.00
7433;BME280;32233;49.500;7.764;2023-08-31T03:51:42;98004.63;;;9.18;100.00
7433;BME280;32233;49.500;7.764;2023-08-31T03:54:10;98006.47;;;9.11;100.00
7433;BME280;32233;49.500;7.764;2023-08-31T03:56:39;98007.06;;;9.13;100.00
7433;BME280;32233;49.500;7.764;2023-08-31T03:59:06;98006.66;;;9.16;100.00
7433;BME280;32233;49.500;7.764;2023-08-31T04:01:33;98005.25;;;9.20;100.00
7433;BME280;32233;49.500;7.764;2023-08-31T04:04:00;98009.50;;;9.28;100.00
7433;BME280;32233;49.500;7.764;2023-08-31T04:06:26;98015.38;;;9.30;100.00
7433;BME280;32233;49.500;7.764;2023-08-31T04:08:55;98017.22;;;9.16;100.00
7433;BME280;32233;49.500;7.764;2023-08-31T04:11:22;98020.63;;;9.10;100.00
7433;BME280;32233;49.500;7.764;2023-08-31T04:13:48;98020.44;;;9.05;100.00
7433;BME280;32233;49.500;7.764;2023-08-31T04:16:15;98015.38;;;9.03;100.00
7433;BME280;32233;49.500;7.764;2023-08-31T04:18:41;98019.25;;;9.07;100.00
7433;BME280;32233;49.500;7.764;2023-08-31T04:21:08;98021.25;;;9.12;100.00
7433;BME280;32233;49.500;7.764;2023-08-31T04:23:35;98021.25;;;9.05;100.00
7433;BME280;32233;49.500;7.764;2023-08-31T04:26:09;98019.22;;;9.01;100.00
7433;BME280;32233;49.500;7.764;2023-08-31T04:28:36;98023.88;;;9.05;100.00
7433;BME280;32233;49.500;7.764;2023-08-31T04:31:06;98023.06;;;8.91;100.00
7433;BME280;32233;49.500;7.764;2023-08-31T04:33:38;98029.75;;;8.87;100.00
7433;BME280;32233;49.500;7.764;2023-08-31T04:36:05;98033.38;;;8.80;100.00
7433;BME280;32233;49.500;7.764;2023-08-31T04:38:32;98037.44;;;8.76;100.00
7433;BME280;32233;49.500;7.764;2023-08-31T04:40:59;98044.31;;;8.70;100.00
7433;BME280;32233;49.500;7.764;2023-08-31T04:43:26;98054.66;;;8.72;100.00
7433;BME280;32233;49.500;7.764;2023-08-31T04:45:54;98052.41;;;8.68;100.00
7433;BME280;32233;49.500;7.764;2023-08-31T04:48:21;98055.03;;;8.62;100.00
7433;BME280;32233;49.500;7.764;2023-08-31T04:50:47;98063.94;;;8.61;100.00
7433;BME280;32233;49.500;7.764;2023-08-31T04:53:14;98058.28;;;8.64;100.00
7433;BME280;32233;49.500;7.764;2023-08-31T04:55:41;98061.72;;;8.64;100.00
7433;BME280;32233;49.500;7.764;2023-08-31T04:58:08;98063.94;;;8.61;100.00
7433;BME280;32233;49.500;7.764;2023-08-31T05:00:34;98067.00;;;8.64;100.00
7433;BME280;32233;49.500;7.764;2023-08-31T05:03:01;98068.03;;;8.70;100.00
7433;BME280;32233;49.500;7.764;2023-08-31T05:05:28;98067.66;;;8.80;100.00
7433;BME280;32233;49.500;7.764;2023-08-31T05:07:54;98069.13;;;9.02;100.00
7433;BME280;32233;49.500;7.764;2023-08-31T05:10:21;98065.66;;;9.08;100.00
7433;BME280;32233;49.500;7.764;2023-08-31T05:12:47;98072.38;;;9.11;100.00
7433;BME280;32233;49.500;7.764;2023-08-31T05:15:14;98070.97;;;9.28;100.00
7433;BME280;32233;49.500;7.764;2023-08-31T05:17:40;98073.81;;;9.40;100.00
7433;BME280;32233;49.500;7.764;2023-08-31T05:20:07;98073.00;;;9.46;100.00
7433;BME280;32233;49.500;7.764;2023-08-31T05:22:36;98079.31;;;9.52;100.00
7433;BME280;32233;49.500;7.764;2023-08-31T05:25:02;98081.94;;;9.58;100.00
7433;BME280;32233;49.500;7.764;2023-08-31T05:27:30;98076.84;;;9.70;100.00
7433;BME280;32233;49.500;7.764;2023-08-31T05:29:57;98083.56;;;9.73;100.00
7433;BME280;32233;49.500;7.764;2023-08-31T05:32:23;98080.69;;;10.01;100.00
7433;BME280;32233;49.500;7.764;2023-08-31T05:34:50;98081.97;;;10.95;100.00
7433;BME280;32233;49.500;7.764;2023-08-31T05:37:16;98085.38;;;11.33;100.00
7433;BME280;32233;49.500;7.764;2023-08-31T05:39:47;98084.31;;;11.91;100.00
7433;BME280;32233;49.500;7.764;2023-08-31T05:42:14;98090.53;;;12.58;100.00
7433;BME280;32233;49.500;7.764;2023-08-31T05:44:41;98086.00;;;13.07;100.00
7433;BME280;32233;49.500;7.764;2023-08-31T05:47:07;98089.25;;;13.21;100.00
7433;BME280;32233;49.500;7.764;2023-08-31T05:49:34;98089.84;;;12.93;100.00
7433;BME280;32233;49.500;7.764;2023-08-31T05:52:01;98098.91;;;12.19;100.00
7433;BME280;32233;49.500;7.764;2023-08-31T05:54:27;98105.56;;;11.59;100.00
7433;BME280;32233;49.500;7.764;2023-08-31T05:56:54;98108.13;;;11.41;100.00
7433;BME280;32233;49.500;7.764;2023-08-31T05:59:20;98105.97;;;11.31;100.00
7433;BME280;32233;49.500;7.764;2023-08-31T06:01:47;98104.56;;;11.22;100.00
7433;BME280;32233;49.500;7.764;2023-08-31T06:04:14;98110.75;;;11.09;100.00
7433;BME280;32233;49.500;7.764;2023-08-31T06:06:41;98102.81;;;11.09;100.00
7433;BME280;32233;49.500;7.764;2023-08-31T06:09:07;98107.28;;;11.15;100.00
7433;BME280;32233;49.500;7.764;2023-08-31T06:11:34;98112.47;;;11.29;100.00
7433;BME280;32233;49.500;7.764;2023-08-31T06:14:01;98105.91;;;11.38;100.00
7433;BME280;32233;49.500;7.764;2023-08-31T06:16:28;98109.84;;;11.54;100.00
7433;BME280;32233;49.500;7.764;2023-08-31T06:18:54;98112.88;;;11.82;100.00
7433;BME280;32233;49.500;7.764;2023-08-31T06:21:21;98116.38;;;11.83;100.00
7433;BME280;32233;49.500;7.764;2023-08-31T06:23:47;98109.38;;;11.63;100.00
7433;BME280;32233;49.500;7.764;2023-08-31T06:26:14;98109.16;;;11.65;100.00
7433;BME280;32233;49.500;7.764;2023-08-31T06:28:40;98118.78;;;11.59;100.00
7433;BME280;32233;49.500;7.764;2023-08-31T06:31:07;98120.59;;;11.59;100.00
7433;BME280;32233;49.500;7.764;2023-08-31T06:33:35;98115.31;;;11.59;100.00
7433;BME280;32233;49.500;7.764;2023-08-31T06:36:02;98111.56;;;11.66;100.00
7433;BME280;32233;49.500;7.764;2023-08-31T06:38:28;98117.78;;;11.79;100.00
7433;BME280;32233;49.500;7.764;2023-08-31T06:40:55;98127.50;;;11.92;100.00
7433;BME280;32233;49.500;7.764;2023-08-31T06:43:25;98130.22;;;12.03;100.00
7433;BME280;32233;49.500;7.764;2023-08-31T06:45:54;98132.06;;;12.03;100.00
7433;BME280;32233;49.500;7.764;2023-08-31T06:48:27;98130.63;;;12.07;100.00
7433;BME280;32233;49.500;7.764;2023-08-31T06:50:54;98134.91;;;11.83;100.00
7433;BME280;32233;49.500;7.764;2023-08-31T06:53:20;98139.06;;;11.72;100.00
7433;BME280;32233;49.500;7.764;2023-08-31T06:55:47;98133.03;;;11.58;100.00
7433;BME280;32233;49.500;7.764;2023-08-31T06:58:14;98135.50;;;11.85;100.00
7433;BME280;32233;49.500;7.764;2023-08-31T07:00:41;98143.94;;;12.00;100.00
7433;BME280;32233;49.500;7.764;2023-08-31T07:03:07;98134.41;;;12.18;100.00
7433;BME280;32233;49.500;7.764;2023-08-31T07:05:34;98129.75;;;12.31;100.00
7433;BME280;32233;49.500;7.764;2023-08-31T07:08:02;98141.84;;;12.46;100.00
7433;BME280;32233;49.500;7.764;2023-08-31T07:10:34;98142.88;;;12.45;100.00
7433;BME280;32233;49.500;7.764;2023-08-31T07:13:07;98145.81;;;12.55;100.00
7433;BME280;32233;49.500;7.764;2023-08-31T07:15:44;98161.00;;;12.66;100.00
7433;BME280;32233;49.500;7.764;2023-08-31T07:18:13;98152.53;;;12.57;100.00
7433;BME280;32233;49.500;7.764;2023-08-31T07:20:41;98158.88;;;12.75;100.00
7433;BME280;32233;49.500;7.764;2023-08-31T07:23:10;98157.53;;;12.84;100.00
7433;BME280;32233;49.500;7.764;2023-08-31T07:25:37;98165.38;;;13.09;100.00
7433;BME280;32233;49.500;7.764;2023-08-31T07:28:04;98157.22;;;13.22;100.00
7433;BME280;32233;49.500;7.764;2023-08-31T07:30:30;98158.50;;;13.50;100.00
7433;BME280;32233;49.500;7.764;2023-08-31T07:32:59;98160.19;;;13.86;100.00
7433;BME280;32233;49.500;7.764;2023-08-31T07:35:49;98156.06;;;14.49;100.00
7433;BME280;32233;49.500;7.764;2023-08-31T07:38:16;98153.72;;;16.12;100.00
7433;BME280;32233;49.500;7.764;2023-08-31T07:40:42;98163.66;;;16.33;100.00
7433;BME280;32233;49.500;7.764;2023-08-31T07:43:09;98165.09;;;17.02;100.00
7433;BME280;32233;49.500;7.764;2023-08-31T07:45:36;98154.28;;;17.14;97.47
7433;BME280;32233;49.500;7.764;2023-08-31T07:48:03;98168.50;;;17.73;95.39
7433;BME280;32233;49.500;7.764;2023-08-31T07:50:31;98168.66;;;19.51;85.69
7433;BME280;32233;49.500;7.764;2023-08-31T07:52:58;98160.88;;;20.52;76.76
7433;BME280;32233;49.500;7.764;2023-08-31T07:55:24;98159.97;;;21.42;72.17
7433;BME280;32233;49.500;7.764;2023-08-31T07:57:51;98164.34;;;21.33;69.44
7433;BME280;32233;49.500;7.764;2023-08-31T08:00:18;98171.63;;;20.52;72.60
7433;BME280;32233;49.500;7.764;2023-08-31T08:02:45;98183.41;;;18.71;81.17
7433;BME280;32233;49.500;7.764;2023-08-31T08:05:12;98174.34;;;17.70;92.31
7433;BME280;32233;49.500;7.764;2023-08-31T08:07:39;98185.06;;;17.43;94.28
7433;BME280;32233;49.500;7.764;2023-08-31T08:10:09;98187.63;;;17.60;92.31
7433;BME280;32233;49.500;7.764;2023-08-31T08:12:40;98187.81;;;17.04;94.97
7433;BME280;32233;49.500;7.764;2023-08-31T08:15:07;98189.00;;;16.53;100.00
7433;BME280;32233;49.500;7.764;2023-08-31T08:17:35;98188.94;;;16.48;100.00
7433;BME280;32233;49.500;7.764;2023-08-31T08:20:02;98194.75;;;16.45;100.00
7433;BME280;32233;49.500;7.764;2023-08-31T08:22:29;98194.16;;;16.59;100.00
7433;BME280;32233;49.500;7.764;2023-08-31T08:24:56;98193.25;;;16.15;100.00
7433;BME280;32233;49.500;7.764;2023-08-31T08:27:22;98193.81;;;16.17;100.00
7433;BME280;32233;49.500;7.764;2023-08-31T08:29:49;98192.81;;;16.40;100.00
7433;BME280;32233;49.500;7.764;2023-08-31T08:32:16;98205.53;;;16.72;100.00
7433;BME280;32233;49.500;7.764;2023-08-31T08:34:42;98198.63;;;16.93;97.37
7433;BME280;32233;49.500;7.764;2023-08-31T08:37:09;98196.88;;;17.25;90.37
7433;BME280;32233;49.500;7.764;2023-08-31T08:39:35;98200.06;;;17.00;93.36
7433;BME280;32233;49.500;7.764;2023-08-31T08:42:04;98205.00;;;17.14;90.95
7433;BME280;32233;49.500;7.764;2023-08-31T08:44:32;98197.78;;;17.63;93.03
7433;BME280;32233;49.500;7.764;2023-08-31T08:47:00;98212.16;;;17.57;93.93
7433;BME280;32233;49.500;7.764;2023-08-31T08:49:28;98202.63;;;17.66;90.64
7433;BME280;32233;49.500;7.764;2023-08-31T08:51:56;98213.13;;;17.73;93.93
7433;BME280;32233;49.500;7.764;2023-08-31T08:54:23;98214.84;;;17.57;88.37
7433;BME280;32233;49.500;7.764;2023-08-31T08:56:50;98203.41;;;17.62;90.62
7433;BME280;32233;49.500;7.764;2023-08-31T08:59:17;98201.47;;;17.57;85.97
7433;BME280;32233;49.500;7.764;2023-08-31T09:01:45;98204.47;;;17.61;84.58
7433;BME280;32233;49.500;7.764;2023-08-31T09:04:12;98206.03;;;17.56;89.90
7433;BME280;32233;49.500;7.764;2023-08-31T09:06:39;98204.75;;;17.64;86.89
7433;BME280;32233;49.500;7.764;2023-08-31T09:09:10;98191.06;;;17.82;83.55
7433;BME280;32233;49.500;7.764;2023-08-31T09:11:36;98202.53;;;17.83;83.90
7433;BME280;32233;49.500;7.764;2023-08-31T09:14:16;98205.53;;;17.60;86.54
7433;BME280;32233;49.500;7.764;2023-08-31T09:16:48;98207.31;;;17.54;81.71
7433;BME280;32233;49.500;7.764;2023-08-31T09:19:33;98216.75;;;17.62;84.84
7433;BME280;32233;49.500;7.764;2023-08-31T09:21:59;98217.78;;;17.55;80.43
7433;BME280;32233;49.500;7.764;2023-08-31T09:24:26;98217.59;;;17.67;79.79
7433;BME280;32233;49.500;7.764;2023-08-31T09:26:55;98219.06;;;17.53;79.48
7433;BME280;32233;49.500;7.764;2023-08-31T09:29:22;98215.38;;;17.59;74.79
7433;BME280;32233;49.500;7.764;2023-08-31T09:31:48;98215.81;;;17.24;77.90
7433;BME280;32233;49.500;7.764;2023-08-31T09:34:16;98219.13;;;17.31;78.08
7433;BME280;32233;49.500;7.764;2023-08-31T09:36:43;98209.28;;;17.37;82.22
7433;BME280;32233;49.500;7.764;2023-08-31T09:39:12;98206.13;;;17.40;74.69
7433;BME280;32233;49.500;7.764;2023-08-31T09:41:53;98212.25;;;17.40;77.99
7433;BME280;32233;49.500;7.764;2023-08-31T09:44:20;98210.81;;;17.54;78.40
7433;BME280;32233;49.500;7.764;2023-08-31T09:46:47;98223.41;;;17.59;77.47
7433;BME280;32233;49.500;7.764;2023-08-31T09:49:16;98217.38;;;17.69;73.02
7433;BME280;32233;49.500;7.764;2023-08-31T09:51:48;98213.25;;;17.56;73.32
7433;BME280;32233;49.500;7.764;2023-08-31T09:54:20;98219.50;;;17.94;75.69
7433;BME280;32233;49.500;7.764;2023-08-31T09:56:55;98208.28;;;17.70;73.80
7433;BME280;32233;49.500;7.764;2023-08-31T09:59:23;98213.38;;;17.71;72.03
7433;BME280;32233;49.500;7.764;2023-08-31T10:01:52;98214.88;;;17.84;72.77
7433;BME280;32233;49.500;7.764;2023-08-31T10:04:19;98217.66;;;17.99;75.84
7433;BME280;32233;49.500;7.764;2023-08-31T10:06:45;98211.91;;;18.13;74.09
7433;BME280;32233;49.500;7.764;2023-08-31T10:09:13;98211.44;;;18.21;69.87
7433;BME280;32233;49.500;7.764;2023-08-31T10:11:40;98205.69;;;18.44;68.97
7433;BME280;32233;49.500;7.764;2023-08-31T10:14:13;98207.22;;;18.72;69.76
7433;BME280;32233;49.500;7.764;2023-08-31T10:16:41;98206.53;;;18.92;71.67
7433;BME280;32233;49.500;7.764;2023-08-31T10:19:10;98209.84;;;18.67;67.79
7433;BME280;32233;49.500;7.764;2023-08-31T10:21:37;98220.59;;;17.98;73.32
7433;BME280;32233;49.500;7.764;2023-08-31T10:24:05;98214.09;;;17.89;72.30
7433;BME280;32233;49.500;7.764;2023-08-31T10:26:33;98218.53;;;18.42;73.39
7433;BME280;32233;49.500;7.764;2023-08-31T10:28:59;98205.41;;;18.41;73.98
7433;BME280;32233;49.500;7.764;2023-08-31T10:31:32;98211.03;;;18.07;75.28
7433;BME280;32233;49.500;7.764;2023-08-31T10:34:01;98208.34;;;18.02;74.73
7433;BME280;32233;49.500;7.764;2023-08-31T10:36:43;98210.75;;;18.03;73.73
7433;BME280;32233;49.500;7.764;2023-08-31T10:39:12;98220.09;;;18.33;71.77
7433;BME280;32233;49.500;7.764;2023-08-31T10:41:39;98210.66;;;19.15;70.58
7433;BME280;32233;49.500;7.764;2023-08-31T10:44:23;98212.78;;;19.18;69.06
7433;BME280;32233;49.500;7.764;2023-08-31T10:46:51;98216.44;;;18.92;72.24
7433;BME280;32233;49.500;7.764;2023-08-31T10:49:21;98212.53;;;18.67;71.48
7433;BME280;32233;49.500;7.764;2023-08-31T10:51:49;98211.84;;;18.45;74.47
7433;BME280;32233;49.500;7.764;2023-08-31T10:54:27;98219.59;;;18.41;71.42
7433;BME280;32233;49.500;7.764;2023-08-31T11:02:36;98207.25;;;18.35;73.48
7433;BME280;32233;49.500;7.764;2023-08-31T11:05:11;98204.09;;;18.06;70.08
7433;BME280;32233;49.500;7.764;2023-08-31T11:07:40;98205.94;;;18.38;71.45
7433;BME280;32233;49.500;7.764;2023-08-31T11:12:36;98214.69;;;17.69;71.63
7433;BME280;32233;49.500;7.764;2023-08-31T11:15:03;98219.00;;;17.21;73.59
7433;BME280;32233;49.500;7.764;2023-08-31T11:17:30;98212.13;;;17.03;75.19
7433;BME280;32233;49.500;7.764;2023-08-31T11:20:00;98208.28;;;16.77;78.29
7433;BME280;32233;49.500;7.764;2023-08-31T11:22:27;98209.41;;;16.81;78.06
7433;BME280;32233;49.500;7.764;2023-08-31T11:24:54;98208.44;;;17.58;71.88
7433;BME280;32233;49.500;7.764;2023-08-31T11:27:22;98206.88;;;18.59;70.94
7433;BME280;32233;49.500;7.764;2023-08-31T11:29:49;98199.19;;;18.72;70.69
7433;BME280;32233;49.500;7.764;2023-08-31T11:32:16;98196.75;;;18.28;67.54
7433;BME280;32233;49.500;7.764;2023-08-31T11:34:45;98192.97;;;17.60;72.64
7433;BME280;32233;49.500;7.764;2023-08-31T11:37:13;98200.78;;;17.18;75.13
7433;BME280;32233;49.500;7.764;2023-08-31T11:39:53;98208.28;;;16.77;76.91
7433;BME280;32233;49.500;7.764;2023-08-31T11:42:21;98209.91;;;16.61;84.91
7433;BME280;32233;49.500;7.764;2023-08-31T11:44:50;98214.84;;;17.57;77.27
7433;BME280;32233;49.500;7.764;2023-08-31T11:47:17;98209.16;;;18.07;70.98
7433;BME280;32233;49.500;7.764;2023-08-31T11:49:45;98205.84;;;18.27;70.65
7433;BME280;32233;49.500;7.764;2023-08-31T11:52:13;98207.69;;;17.90;72.97
7433;BME280;32233;49.500;7.764;2023-08-31T11:54:42;98212.66;;;17.54;76.27
7433;BME280;32233;49.500;7.764;2023-08-31T11:57:09;98216.06;;;17.22;75.28
7433;BME280;32233;49.500;7.764;2023-08-31T11:59:38;98204.66;;;17.05;77.92
7433;BME280;32233;49.500;7.764;2023-08-31T12:02:06;98201.88;;;16.95;80.19
7433;BME280;32233;49.500;7.764;2023-08-31T12:04:43;98185.72;;;20.93;62.58
7433;BME280;32233;49.500;7.764;2023-08-31T12:07:18;98182.31;;;20.72;60.40
7433;BME280;32233;49.500;7.764;2023-08-31T12:09:45;98188.56;;;18.88;65.90
7433;BME280;32233;49.500;7.764;2023-08-31T12:12:20;98196.41;;;18.57;70.87
7433;BME280;32233;49.500;7.764;2023-08-31T12:14:52;98199.69;;;18.27;70.22
7433;BME280;32233;49.500;7.764;2023-08-31T12:17:19;98202.38;;;17.95;72.73
7433;BME280;32233;49.500;7.764;2023-08-31T12:19:45;98197.69;;;18.97;70.24
7433;BME280;32233;49.500;7.764;2023-08-31T12:22:12;98194.41;;;19.58;64.22
7433;BME280;32233;49.500;7.764;2023-08-31T12:24:41;98191.25;;;20.01;63.34
7433;BME280;32233;49.500;7.764;2023-08-31T12:27:09;98193.13;;;22.40;55.61
7433;BME280;32233;49.500;7.764;2023-08-31T12:29:35;98195.94;;;21.56;57.72
7433;BME280;32233;49.500;7.764;2023-08-31T12:32:02;98198.78;;;21.20;58.17
7433;BME280;32233;49.500;7.764;2023-08-31T12:34:29;98190.13;;;22.46;52.43
7433;BME280;32233;49.500;7.764;2023-08-31T12:36:59;98188.25;;;21.34;56.98
7433;BME280;32233;49.500;7.764;2023-08-31T12:39:27;98186.22;;;21.06;57.74
7433;BME280;32233;49.500;7.764;2023-08-31T12:41:53;98167.88;;;21.18;59.20
7433;BME280;32233;49.500;7.764;2023-08-31T12:44:31;98172.53;;;21.57;55.98
7433;BME280;32233;49.500;7.764;2023-08-31T12:46:57;98180.38;;;22.50;55.53
7433;BME280;32233;49.500;7.764;2023-08-31T12:49:24;98174.22;;;21.47;55.37
7433;BME280;32233;49.500;7.764;2023-08-31T12:51:50;98170.84;;;22.00;59.01
7433;BME280;32233;49.500;7.764;2023-08-31T12:54:18;98167.03;;;21.33;62.73
7433;BME280;32233;49.500;7.764;2023-08-31T12:56:44;98171.06;;;20.45;64.60
7433;BME280;32233;49.500;7.764;2023-08-31T12:59:11;98173.50;;;19.60;68.80
7433;BME280;32233;49.500;7.764;2023-08-31T13:01:37;98170.94;;;19.02;69.90
7433;BME280;32233;49.500;7.764;2023-08-31T13:04:04;98177.84;;;18.88;75.28
7433;BME280;32233;49.500;7.764;2023-08-31T13:06:31;98177.06;;;18.97;76.57
7433;BME280;32233;49.500;7.764;2023-08-31T13:08:58;98177.06;;;18.92;72.78
7433;BME280;32233;49.500;7.764;2023-08-31T13:11:24;98183.00;;;18.52;69.36
7433;BME280;32233;49.500;7.764;2023-08-31T13:13:51;98184.56;;;18.48;69.72
7433;BME280;32233;49.500;7.764;2023-08-31T13:16:19;98188.25;;;18.37;69.88
7433;BME280;32233;49.500;7.764;2023-08-31T13:18:45;98193.91;;;18.08;73.63
7433;BME280;32233;49.500;7.764;2023-08-31T13:21:12;98192.56;;;18.00;71.42
7433;BME280;32233;49.500;7.764;2023-08-31T13:23:38;98188.25;;;17.99;68.51
7433;BME280;32233;49.500;7.764;2023-08-31T13:26:05;98179.25;;;18.11;72.42
7433;BME280;32233;49.500;7.764;2023-08-31T13:28:32;98182.44;;;18.07;68.51